This is the latest recevied weather packets stored in our database for station/object DL4LAM-15. If no packets are shown the sender has not sent any weather packets the latest 10 day(s).
| Time | Temp. | Humidity | Pressure | Rain* | Wind** | Luminosity | Snow |
|---|---|---|---|---|---|---|---|
| 1777382116 | 17.22° C | 29% | 1024.2 hPa | 0 mm | - | - | - |
| 1777374316 | 16.11° C | 36% | 1024.7 hPa | 0 mm | - | - | - |
| 1777371616 | 15.56° C | 40% | 1024.8 hPa | 0 mm | - | - | - |
| 1777371016 | 15.56° C | 41% | 1024.7 hPa | 0 mm | - | - | - |
| 1777370416 | 15° C | 41% | 1024.8 hPa | 0 mm | - | - | - |
| 1777367116 | 13.89° C | 45% | 1024.8 hPa | 0 mm | - | - | - |
| 1777364416 | 13.33° C | 45% | 1024.6 hPa | 0 mm | - | - | - |
| 1777361118 | 11.11° C | 51% | 1024.4 hPa | 0 mm | - | - | - |
| 1777360518 | 11.11° C | 54% | 1024.3 hPa | 0 mm | - | - | - |
| 1777359018 | 10° C | 55% | 1024.2 hPa | 0 mm | - | - | - |
| 1777356918 | 9.44° C | 57% | 1024 hPa | 0 mm | - | - | - |
| 1777356018 | 9.44° C | 59% | 1023.9 hPa | 0 mm | - | - | - |
| 1777353918 | 8.89° C | 62% | 1023.8 hPa | 0 mm | - | - | - |
| 1777353623 | 8.33° C | 63% | 1023.7 hPa | 0 mm | - | - | - |
| 1777347618 | 7.22° C | 73% | 1022.9 hPa | 0 mm | - | - | - |
| 1777343718 | 7.78° C | 73% | 1023 hPa | 0 mm | - | - | - |
| 1777343418 | 7.78° C | 72% | 1023 hPa | 0 mm | - | - | - |
| 1777343118 | 7.78° C | 72% | 1023 hPa | 0 mm | - | - | - |
| 1777337718 | 8.89° C | 69% | 1022.9 hPa | 0 mm | - | - | - |
| 1777337418 | 8.89° C | 68% | 1022.8 hPa | 0 mm | - | - | - |
| 1777334417 | 9.44° C | 66% | 1022.6 hPa | 0 mm | - | - | - |
| 1777332017 | 10° C | 64% | 1022.3 hPa | 0 mm | - | - | - |
| 1777329018 | 10.56° C | 61% | 1022.2 hPa | 0 mm | - | - | - |
| 1777326316 | 11.67° C | 56% | 1022 hPa | 0 mm | - | - | - |
| 1777325416 | 11.67° C | 53% | 1022 hPa | 0 mm | - | - | - |
* Rain latest hour (hover to see other rain measurements)
** Current wind speed in m/s (hover to see current wind gust speed)